Terminal Aerodrome Forecast
Issued by NWS Charleston, WV

Current Version | Previous Version | Text Only | Print | Product List | Glossary Off
Versions: 1 2 3 4 5 6 7 8 9 10 11 12 13 14 15 16 17 18 19 20 21 22 23 24

000
FTUS41 KRLX 232200 AAB
TAFEKN
TAF AMD
KEKN 232233Z 2323/2418 28007KT P6SM SCT050
     FM240100 27004KT 4SM TSRA BR BKN025CB
     FM240300 VRB03KT 4SM SHRA BR VCTS OVC020CB
     FM240900 00000KT 5SM SHRA BR OVC015
     FM241100 VRB03KT 5SM BR OVC015
     FM241500 32004KT 6SM BR OVC025
     FM241600 32005KT P6SM BKN025=

USA.gov is the U.S. government's official web portal to all federal, state and local government web resources and services.